sensor_id;sensor_type;location;lat;lon;timestamp;P1;durP1;ratioP1;P2;durP2;ratioP2
26718;SDS011;14326;50.794;6.060;2023-02-15T00:01:17;45.05;;;17.95;;
26718;SDS011;14326;50.794;6.060;2023-02-15T00:03:45;43.80;;;17.98;;
26718;SDS011;14326;50.794;6.060;2023-02-15T00:06:14;44.20;;;18.77;;
26718;SDS011;14326;50.794;6.060;2023-02-15T00:08:41;41.03;;;17.67;;
26718;SDS011;14326;50.794;6.060;2023-02-15T00:11:08;41.25;;;18.00;;
26718;SDS011;14326;50.794;6.060;2023-02-15T00:13:36;43.40;;;17.10;;
26718;SDS011;14326;50.794;6.060;2023-02-15T00:16:04;40.67;;;17.27;;
26718;SDS011;14326;50.794;6.060;2023-02-15T00:18:33;40.38;;;17.50;;
26718;SDS011;14326;50.794;6.060;2023-02-15T00:21:04;44.58;;;17.00;;
26718;SDS011;14326;50.794;6.060;2023-02-15T00:23:32;42.70;;;18.08;;
26718;SDS011;14326;50.794;6.060;2023-02-15T00:26:03;42.67;;;17.88;;
26718;SDS011;14326;50.794;6.060;2023-02-15T00:28:31;51.80;;;19.25;;
26718;SDS011;14326;50.794;6.060;2023-02-15T00:31:02;46.25;;;18.63;;
26718;SDS011;14326;50.794;6.060;2023-02-15T00:33:29;44.90;;;18.10;;
26718;SDS011;14326;50.794;6.060;2023-02-15T00:35:56;42.33;;;19.45;;
26718;SDS011;14326;50.794;6.060;2023-02-15T00:38:25;45.22;;;19.92;;
26718;SDS011;14326;50.794;6.060;2023-02-15T00:40:53;49.10;;;19.65;;
26718;SDS011;14326;50.794;6.060;2023-02-15T00:43:19;45.33;;;18.38;;
26718;SDS011;14326;50.794;6.060;2023-02-15T00:45:46;46.67;;;19.17;;
26718;SDS011;14326;50.794;6.060;2023-02-15T00:48:12;48.63;;;18.83;;
26718;SDS011;14326;50.794;6.060;2023-02-15T00:50:39;49.05;;;19.42;;
26718;SDS011;14326;50.794;6.060;2023-02-15T00:53:06;47.97;;;19.65;;
26718;SDS011;14326;50.794;6.060;2023-02-15T00:55:34;42.42;;;18.63;;
26718;SDS011;14326;50.794;6.060;2023-02-15T00:58:00;45.78;;;18.65;;
26718;SDS011;14326;50.794;6.060;2023-02-15T01:00:27;48.30;;;19.00;;
26718;SDS011;14326;50.794;6.060;2023-02-15T01:02:54;42.15;;;18.73;;
26718;SDS011;14326;50.794;6.060;2023-02-15T01:05:20;49.35;;;19.33;;
26718;SDS011;14326;50.794;6.060;2023-02-15T01:07:47;54.47;;;20.02;;
26718;SDS011;14326;50.794;6.060;2023-02-15T01:10:13;44.58;;;19.17;;
26718;SDS011;14326;50.794;6.060;2023-02-15T01:12:41;48.05;;;21.15;;
26718;SDS011;14326;50.794;6.060;2023-02-15T01:15:08;50.85;;;20.40;;
26718;SDS011;14326;50.794;6.060;2023-02-15T01:17:35;47.00;;;20.73;;
26718;SDS011;14326;50.794;6.060;2023-02-15T01:20:02;49.17;;;19.90;;
26718;SDS011;14326;50.794;6.060;2023-02-15T01:22:29;55.85;;;20.98;;
26718;SDS011;14326;50.794;6.060;2023-02-15T01:24:56;55.80;;;20.85;;
26718;SDS011;14326;50.794;6.060;2023-02-15T01:27:23;50.55;;;20.13;;
26718;SDS011;14326;50.794;6.060;2023-02-15T01:29:51;47.70;;;20.27;;
26718;SDS011;14326;50.794;6.060;2023-02-15T01:32:17;48.92;;;20.73;;
26718;SDS011;14326;50.794;6.060;2023-02-15T01:34:44;53.88;;;21.83;;
26718;SDS011;14326;50.794;6.060;2023-02-15T01:37:10;50.08;;;22.38;;
26718;SDS011;14326;50.794;6.060;2023-02-15T01:39:37;52.88;;;20.60;;
26718;SDS011;14326;50.794;6.060;2023-02-15T01:42:04;60.05;;;24.83;;
26718;SDS011;14326;50.794;6.060;2023-02-15T01:44:46;49.13;;;21.38;;
26718;SDS011;14326;50.794;6.060;2023-02-15T01:47:18;48.22;;;19.77;;
26718;SDS011;14326;50.794;6.060;2023-02-15T01:49:49;46.15;;;20.00;;
26718;SDS011;14326;50.794;6.060;2023-02-15T01:52:24;46.10;;;20.08;;
26718;SDS011;14326;50.794;6.060;2023-02-15T01:54:51;49.17;;;20.45;;
26718;SDS011;14326;50.794;6.060;2023-02-15T01:57:18;49.95;;;21.25;;
26718;SDS011;14326;50.794;6.060;2023-02-15T01:59:48;51.22;;;22.10;;
26718;SDS011;14326;50.794;6.060;2023-02-15T02:02:21;56.70;;;22.60;;
26718;SDS011;14326;50.794;6.060;2023-02-15T02:04:54;51.85;;;22.38;;
26718;SDS011;14326;50.794;6.060;2023-02-15T02:07:28;54.72;;;22.00;;
26718;SDS011;14326;50.794;6.060;2023-02-15T02:09:58;49.97;;;20.90;;
26718;SDS011;14326;50.794;6.060;2023-02-15T02:12:26;65.45;;;25.30;;
26718;SDS011;14326;50.794;6.060;2023-02-15T02:14:52;50.75;;;21.75;;
26718;SDS011;14326;50.794;6.060;2023-02-15T02:17:22;50.97;;;21.90;;
26718;SDS011;14326;50.794;6.060;2023-02-15T02:20:15;55.00;;;22.48;;
26718;SDS011;14326;50.794;6.060;2023-02-15T02:23:03;48.13;;;20.25;;
26718;SDS011;14326;50.794;6.060;2023-02-15T02:28:46;50.97;;;20.80;;
26718;SDS011;14326;50.794;6.060;2023-02-15T02:31:36;50.85;;;21.58;;
26718;SDS011;14326;50.794;6.060;2023-02-15T02:34:11;55.15;;;20.77;;
26718;SDS011;14326;50.794;6.060;2023-02-15T02:36:44;55.60;;;22.15;;
26718;SDS011;14326;50.794;6.060;2023-02-15T02:39:21;53.92;;;20.38;;
26718;SDS011;14326;50.794;6.060;2023-02-15T02:41:55;51.83;;;20.75;;
26718;SDS011;14326;50.794;6.060;2023-02-15T02:44:28;52.83;;;21.77;;
26718;SDS011;14326;50.794;6.060;2023-02-15T02:47:02;50.13;;;20.73;;
26718;SDS011;14326;50.794;6.060;2023-02-15T02:49:35;51.25;;;22.15;;
26718;SDS011;14326;50.794;6.060;2023-02-15T02:54:31;52.83;;;20.60;;
26718;SDS011;14326;50.794;6.060;2023-02-15T02:57:01;50.95;;;20.13;;
26718;SDS011;14326;50.794;6.060;2023-02-15T02:59:32;46.60;;;18.40;;
26718;SDS011;14326;50.794;6.060;2023-02-15T03:02:04;49.78;;;20.17;;
26718;SDS011;14326;50.794;6.060;2023-02-15T03:04:39;46.60;;;20.00;;
26718;SDS011;14326;50.794;6.060;2023-02-15T03:07:10;48.42;;;20.38;;
26718;SDS011;14326;50.794;6.060;2023-02-15T03:09:39;50.40;;;19.80;;
26718;SDS011;14326;50.794;6.060;2023-02-15T03:12:08;50.83;;;20.65;;
26718;SDS011;14326;50.794;6.060;2023-02-15T03:14:37;46.05;;;20.85;;
26718;SDS011;14326;50.794;6.060;2023-02-15T03:17:06;45.38;;;18.98;;
26718;SDS011;14326;50.794;6.060;2023-02-15T03:19:34;46.88;;;20.02;;
26718;SDS011;14326;50.794;6.060;2023-02-15T03:22:05;47.10;;;19.02;;
26718;SDS011;14326;50.794;6.060;2023-02-15T03:24:35;52.72;;;19.98;;
26718;SDS011;14326;50.794;6.060;2023-02-15T03:27:07;48.13;;;19.63;;
26718;SDS011;14326;50.794;6.060;2023-02-15T03:29:42;45.42;;;18.17;;
26718;SDS011;14326;50.794;6.060;2023-02-15T03:32:10;45.03;;;18.13;;
26718;SDS011;14326;50.794;6.060;2023-02-15T03:34:39;44.83;;;18.02;;
26718;SDS011;14326;50.794;6.060;2023-02-15T03:37:10;45.95;;;17.83;;
26718;SDS011;14326;50.794;6.060;2023-02-15T03:39:47;51.22;;;20.35;;
26718;SDS011;14326;50.794;6.060;2023-02-15T03:42:19;50.10;;;20.48;;
26718;SDS011;14326;50.794;6.060;2023-02-15T03:44:52;49.75;;;20.13;;
26718;SDS011;14326;50.794;6.060;2023-02-15T03:47:23;48.58;;;18.65;;
26718;SDS011;14326;50.794;6.060;2023-02-15T03:49:55;44.03;;;18.63;;
26718;SDS011;14326;50.794;6.060;2023-02-15T03:52:28;42.85;;;18.45;;
26718;SDS011;14326;50.794;6.060;2023-02-15T03:54:56;43.95;;;17.17;;
26718;SDS011;14326;50.794;6.060;2023-02-15T03:57:24;46.95;;;17.63;;
26718;SDS011;14326;50.794;6.060;2023-02-15T04:00:12;41.53;;;17.75;;
26718;SDS011;14326;50.794;6.060;2023-02-15T04:03:08;44.85;;;16.00;;
26718;SDS011;14326;50.794;6.060;2023-02-15T04:05:52;49.40;;;18.40;;
26718;SDS011;14326;50.794;6.060;2023-02-15T04:08:31;47.65;;;19.08;;
26718;SDS011;14326;50.794;6.060;2023-02-15T04:11:14;49.88;;;17.95;;
26718;SDS011;14326;50.794;6.060;2023-02-15T04:13:44;43.50;;;17.17;;
26718;SDS011;14326;50.794;6.060;2023-02-15T04:16:21;44.28;;;18.48;;
26718;SDS011;14326;50.794;6.060;2023-02-15T04:18:54;51.58;;;19.17;;
26718;SDS011;14326;50.794;6.060;2023-02-15T04:21:43;45.72;;;17.35;;
26718;SDS011;14326;50.794;6.060;2023-02-15T04:24:32;44.75;;;14.35;;
26718;SDS011;14326;50.794;6.060;2023-02-15T04:27:19;48.72;;;17.98;;
26718;SDS011;14326;50.794;6.060;2023-02-15T04:29:51;48.53;;;18.92;;
26718;SDS011;14326;50.794;6.060;2023-02-15T04:32:19;43.95;;;17.52;;
26718;SDS011;14326;50.794;6.060;2023-02-15T04:34:46;47.72;;;18.95;;
26718;SDS011;14326;50.794;6.060;2023-02-15T04:37:13;42.80;;;17.75;;
26718;SDS011;14326;50.794;6.060;2023-02-15T04:39:41;48.88;;;18.63;;
26718;SDS011;14326;50.794;6.060;2023-02-15T04:42:07;48.38;;;19.67;;
26718;SDS011;14326;50.794;6.060;2023-02-15T04:44:34;48.28;;;18.83;;
26718;SDS011;14326;50.794;6.060;2023-02-15T04:47:00;44.90;;;17.80;;
26718;SDS011;14326;50.794;6.060;2023-02-15T04:49:27;45.78;;;18.33;;
26718;SDS011;14326;50.794;6.060;2023-02-15T04:51:54;42.97;;;17.42;;
26718;SDS011;14326;50.794;6.060;2023-02-15T04:54:20;43.83;;;18.00;;
26718;SDS011;14326;50.794;6.060;2023-02-15T04:56:49;50.85;;;19.42;;
26718;SDS011;14326;50.794;6.060;2023-02-15T04:59:16;52.87;;;18.27;;
26718;SDS011;14326;50.794;6.060;2023-02-15T05:01:43;49.47;;;17.67;;
26718;SDS011;14326;50.794;6.060;2023-02-15T05:04:09;43.03;;;18.27;;
26718;SDS011;14326;50.794;6.060;2023-02-15T05:06:36;41.95;;;17.92;;
26718;SDS011;14326;50.794;6.060;2023-02-15T05:09:02;46.85;;;18.30;;
26718;SDS011;14326;50.794;6.060;2023-02-15T05:11:29;36.58;;;16.63;;
26718;SDS011;14326;50.794;6.060;2023-02-15T05:13:57;42.40;;;17.30;;
26718;SDS011;14326;50.794;6.060;2023-02-15T05:16:24;55.85;;;18.67;;
26718;SDS011;14326;50.794;6.060;2023-02-15T05:18:52;43.33;;;18.13;;
26718;SDS011;14326;50.794;6.060;2023-02-15T05:21:19;44.97;;;17.92;;
26718;SDS011;14326;50.794;6.060;2023-02-15T05:23:46;43.13;;;17.73;;
26718;SDS011;14326;50.794;6.060;2023-02-15T05:26:14;42.78;;;16.70;;
26718;SDS011;14326;50.794;6.060;2023-02-15T05:29:03;44.08;;;17.40;;
26718;SDS011;14326;50.794;6.060;2023-02-15T05:31:30;42.72;;;16.63;;
26718;SDS011;14326;50.794;6.060;2023-02-15T05:33:57;45.03;;;17.05;;
26718;SDS011;14326;50.794;6.060;2023-02-15T05:36:24;45.83;;;16.60;;
26718;SDS011;14326;50.794;6.060;2023-02-15T05:38:51;41.40;;;17.45;;
26718;SDS011;14326;50.794;6.060;2023-02-15T05:41:17;44.20;;;18.80;;
26718;SDS011;14326;50.794;6.060;2023-02-15T05:43:44;41.38;;;17.65;;
26718;SDS011;14326;50.794;6.060;2023-02-15T05:46:12;43.72;;;16.90;;
26718;SDS011;14326;50.794;6.060;2023-02-15T05:48:39;41.20;;;17.73;;
26718;SDS011;14326;50.794;6.060;2023-02-15T05:51:06;39.72;;;16.40;;
26718;SDS011;14326;50.794;6.060;2023-02-15T05:53:35;43.45;;;17.73;;
26718;SDS011;14326;50.794;6.060;2023-02-15T05:56:03;40.30;;;17.52;;
26718;SDS011;14326;50.794;6.060;2023-02-15T05:58:32;41.88;;;17.10;;
26718;SDS011;14326;50.794;6.060;2023-02-15T06:00:59;40.47;;;15.77;;
26718;SDS011;14326;50.794;6.060;2023-02-15T06:03:36;44.05;;;16.75;;
26718;SDS011;14326;50.794;6.060;2023-02-15T06:06:03;42.58;;;16.85;;
26718;SDS011;14326;50.794;6.060;2023-02-15T06:08:30;38.15;;;16.02;;
26718;SDS011;14326;50.794;6.060;2023-02-15T06:10:56;40.08;;;16.85;;
26718;SDS011;14326;50.794;6.060;2023-02-15T06:13:23;46.10;;;19.08;;
26718;SDS011;14326;50.794;6.060;2023-02-15T06:15:50;46.03;;;19.00;;
26718;SDS011;14326;50.794;6.060;2023-02-15T06:18:16;44.72;;;19.23;;
26718;SDS011;14326;50.794;6.060;2023-02-15T06:20:46;50.35;;;18.88;;
26718;SDS011;14326;50.794;6.060;2023-02-15T06:23:13;49.60;;;18.52;;
26718;SDS011;14326;50.794;6.060;2023-02-15T06:25:39;39.45;;;16.30;;
26718;SDS011;14326;50.794;6.060;2023-02-15T06:28:06;42.55;;;16.40;;
26718;SDS011;14326;50.794;6.060;2023-02-15T06:30:33;40.42;;;16.70;;
26718;SDS011;14326;50.794;6.060;2023-02-15T06:33:00;43.50;;;16.15;;
26718;SDS011;14326;50.794;6.060;2023-02-15T06:35:26;39.88;;;16.33;;
26718;SDS011;14326;50.794;6.060;2023-02-15T06:37:54;43.28;;;17.45;;
26718;SDS011;14326;50.794;6.060;2023-02-15T06:40:21;43.30;;;16.85;;
26718;SDS011;14326;50.794;6.060;2023-02-15T06:42:48;41.67;;;16.30;;
26718;SDS011;14326;50.794;6.060;2023-02-15T06:45:15;40.45;;;16.38;;
26718;SDS011;14326;50.794;6.060;2023-02-15T06:47:41;35.47;;;16.40;;
26718;SDS011;14326;50.794;6.060;2023-02-15T06:50:08;41.97;;;16.02;;
26718;SDS011;14326;50.794;6.060;2023-02-15T06:52:35;39.28;;;15.25;;
26718;SDS011;14326;50.794;6.060;2023-02-15T06:55:04;39.97;;;15.65;;
26718;SDS011;14326;50.794;6.060;2023-02-15T06:57:31;26.02;;;10.88;;
26718;SDS011;14326;50.794;6.060;2023-02-15T06:59:58;41.00;;;15.52;;
26718;SDS011;14326;50.794;6.060;2023-02-15T07:02:25;41.92;;;16.65;;
26718;SDS011;14326;50.794;6.060;2023-02-15T07:04:51;38.33;;;15.85;;
26718;SDS011;14326;50.794;6.060;2023-02-15T07:07:18;39.95;;;16.02;;
26718;SDS011;14326;50.794;6.060;2023-02-15T07:09:45;39.78;;;16.30;;
26718;SDS011;14326;50.794;6.060;2023-02-15T07:12:13;51.10;;;21.02;;
26718;SDS011;14326;50.794;6.060;2023-02-15T07:14:57;37.55;;;14.82;;
26718;SDS011;14326;50.794;6.060;2023-02-15T07:17:24;41.33;;;16.08;;
26718;SDS011;14326;50.794;6.060;2023-02-15T07:19:53;38.77;;;14.97;;
26718;SDS011;14326;50.794;6.060;2023-02-15T07:22:20;41.03;;;15.40;;
26718;SDS011;14326;50.794;6.060;2023-02-15T07:24:47;36.75;;;14.82;;
26718;SDS011;14326;50.794;6.060;2023-02-15T07:27:15;43.95;;;15.63;;
26718;SDS011;14326;50.794;6.060;2023-02-15T07:29:42;34.20;;;15.23;;
26718;SDS011;14326;50.794;6.060;2023-02-15T07:32:08;41.22;;;14.95;;
26718;SDS011;14326;50.794;6.060;2023-02-15T07:34:35;39.10;;;14.52;;
26718;SDS011;14326;50.794;6.060;2023-02-15T07:37:01;35.08;;;13.45;;
26718;SDS011;14326;50.794;6.060;2023-02-15T07:39:29;32.25;;;13.00;;
26718;SDS011;14326;50.794;6.060;2023-02-15T07:41:56;30.83;;;11.98;;
26718;SDS011;14326;50.794;6.060;2023-02-15T07:44:24;34.83;;;12.23;;
26718;SDS011;14326;50.794;6.060;2023-02-15T07:46:50;31.67;;;11.48;;
26718;SDS011;14326;50.794;6.060;2023-02-15T07:49:17;26.35;;;10.05;;
26718;SDS011;14326;50.794;6.060;2023-02-15T07:51:44;27.45;;;10.63;;
26718;SDS011;14326;50.794;6.060;2023-02-15T07:54:11;25.98;;;10.52;;
26718;SDS011;14326;50.794;6.060;2023-02-15T07:56:37;28.80;;;11.32;;
26718;SDS011;14326;50.794;6.060;2023-02-15T07:59:04;31.10;;;11.80;;
26718;SDS011;14326;50.794;6.060;2023-02-15T08:01:35;25.27;;;10.45;;
26718;SDS011;14326;50.794;6.060;2023-02-15T08:04:03;26.65;;;10.57;;
26718;SDS011;14326;50.794;6.060;2023-02-15T08:06:33;27.13;;;11.32;;
26718;SDS011;14326;50.794;6.060;2023-02-15T08:09:01;27.73;;;10.88;;
26718;SDS011;14326;50.794;6.060;2023-02-15T08:11:30;26.88;;;11.63;;
26718;SDS011;14326;50.794;6.060;2023-02-15T08:14:05;28.67;;;11.18;;
26718;SDS011;14326;50.794;6.060;2023-02-15T08:16:35;28.05;;;11.77;;
26718;SDS011;14326;50.794;6.060;2023-02-15T08:19:05;28.65;;;12.73;;
26718;SDS011;14326;50.794;6.060;2023-02-15T08:21:33;27.23;;;11.93;;
26718;SDS011;14326;50.794;6.060;2023-02-15T08:24:01;28.08;;;12.40;;
26718;SDS011;14326;50.794;6.060;2023-02-15T08:26:29;31.50;;;14.90;;
26718;SDS011;14326;50.794;6.060;2023-02-15T08:28:57;29.67;;;13.38;;
26718;SDS011;14326;50.794;6.060;2023-02-15T08:31:24;27.10;;;13.00;;
26718;SDS011;14326;50.794;6.060;2023-02-15T08:33:53;26.52;;;12.98;;
26718;SDS011;14326;50.794;6.060;2023-02-15T08:36:21;28.05;;;12.10;;
26718;SDS011;14326;50.794;6.060;2023-02-15T08:38:49;31.70;;;13.18;;
26718;SDS011;14326;50.794;6.060;2023-02-15T08:41:17;26.23;;;12.68;;
26718;SDS011;14326;50.794;6.060;2023-02-15T08:43:46;28.48;;;13.82;;
26718;SDS011;14326;50.794;6.060;2023-02-15T08:46:14;28.33;;;13.10;;
26718;SDS011;14326;50.794;6.060;2023-02-15T08:48:42;32.35;;;13.63;;
26718;SDS011;14326;50.794;6.060;2023-02-15T08:51:11;31.45;;;14.48;;
26718;SDS011;14326;50.794;6.060;2023-02-15T08:56:06;34.13;;;13.80;;
26718;SDS011;14326;50.794;6.060;2023-02-15T08:58:34;38.83;;;15.60;;
26718;SDS011;14326;50.794;6.060;2023-02-15T09:01:01;43.92;;;20.42;;
26718;SDS011;14326;50.794;6.060;2023-02-15T09:03:33;36.95;;;17.35;;
26718;SDS011;14326;50.794;6.060;2023-02-15T09:06:00;37.63;;;17.30;;
26718;SDS011;14326;50.794;6.060;2023-02-15T09:08:28;37.17;;;16.98;;
26718;SDS011;14326;50.794;6.060;2023-02-15T09:11:04;32.35;;;15.40;;
26718;SDS011;14326;50.794;6.060;2023-02-15T09:13:32;35.10;;;16.27;;
26718;SDS011;14326;50.794;6.060;2023-02-15T09:15:59;37.10;;;15.57;;
26718;SDS011;14326;50.794;6.060;2023-02-15T09:18:27;41.58;;;16.70;;
26718;SDS011;14326;50.794;6.060;2023-02-15T09:20:56;42.28;;;18.73;;
26718;SDS011;14326;50.794;6.060;2023-02-15T09:23:22;35.50;;;16.50;;
26718;SDS011;14326;50.794;6.060;2023-02-15T09:25:50;36.40;;;14.20;;
26718;SDS011;14326;50.794;6.060;2023-02-15T09:28:18;33.10;;;14.73;;
26718;SDS011;14326;50.794;6.060;2023-02-15T09:30:44;35.47;;;13.82;;
26718;SDS011;14326;50.794;6.060;2023-02-15T09:33:11;31.45;;;13.52;;
26718;SDS011;14326;50.794;6.060;2023-02-15T09:35:38;33.65;;;13.25;;
26718;SDS011;14326;50.794;6.060;2023-02-15T09:38:05;29.80;;;13.18;;
26718;SDS011;14326;50.794;6.060;2023-02-15T09:40:32;29.80;;;13.32;;
26718;SDS011;14326;50.794;6.060;2023-02-15T09:43:16;29.23;;;12.18;;
26718;SDS011;14326;50.794;6.060;2023-02-15T09:46:01;32.55;;;12.27;;
26718;SDS011;14326;50.794;6.060;2023-02-15T09:48:40;31.42;;;13.48;;
26718;SDS011;14326;50.794;6.060;2023-02-15T09:51:15;29.17;;;12.07;;
26718;SDS011;14326;50.794;6.060;2023-02-15T09:53:58;31.85;;;12.27;;
26718;SDS011;14326;50.794;6.060;2023-02-15T09:56:50;30.00;;;11.57;;
26718;SDS011;14326;50.794;6.060;2023-02-15T09:59:25;27.63;;;11.00;;
26718;SDS011;14326;50.794;6.060;2023-02-15T10:02:02;29.40;;;11.15;;
26718;SDS011;14326;50.794;6.060;2023-02-15T10:04:51;29.90;;;12.27;;
26718;SDS011;14326;50.794;6.060;2023-02-15T10:07:31;31.58;;;12.57;;
26718;SDS011;14326;50.794;6.060;2023-02-15T10:10:11;36.42;;;13.20;;
26718;SDS011;14326;50.794;6.060;2023-02-15T10:12:57;31.05;;;11.88;;
26718;SDS011;14326;50.794;6.060;2023-02-15T10:15:41;29.88;;;12.07;;
26718;SDS011;14326;50.794;6.060;2023-02-15T10:18:25;31.20;;;11.85;;
26718;SDS011;14326;50.794;6.060;2023-02-15T10:21:02;31.05;;;12.32;;
26718;SDS011;14326;50.794;6.060;2023-02-15T10:23:41;27.83;;;11.32;;
26718;SDS011;14326;50.794;6.060;2023-02-15T10:26:26;30.65;;;11.70;;
26718;SDS011;14326;50.794;6.060;2023-02-15T10:28:59;29.60;;;11.32;;
26718;SDS011;14326;50.794;6.060;2023-02-15T10:31:35;29.73;;;12.05;;
26718;SDS011;14326;50.794;6.060;2023-02-15T10:34:14;33.83;;;11.48;;
26718;SDS011;14326;50.794;6.060;2023-02-15T10:36:56;28.40;;;10.38;;
26718;SDS011;14326;50.794;6.060;2023-02-15T10:39:40;27.13;;;11.02;;
26718;SDS011;14326;50.794;6.060;2023-02-15T10:42:16;28.00;;;11.65;;
26718;SDS011;14326;50.794;6.060;2023-02-15T10:44:55;26.92;;;9.82;;
26718;SDS011;14326;50.794;6.060;2023-02-15T10:47:37;27.80;;;10.48;;
26718;SDS011;14326;50.794;6.060;2023-02-15T10:50:26;26.05;;;9.40;;
26718;SDS011;14326;50.794;6.060;2023-02-15T10:53:06;27.02;;;9.13;;
26718;SDS011;14326;50.794;6.060;2023-02-15T10:55:47;27.77;;;9.27;;
26718;SDS011;14326;50.794;6.060;2023-02-15T10:58:24;29.27;;;8.60;;
26718;SDS011;14326;50.794;6.060;2023-02-15T11:01:06;22.45;;;8.25;;
26718;SDS011;14326;50.794;6.060;2023-02-15T11:03:43;25.70;;;8.73;;
26718;SDS011;14326;50.794;6.060;2023-02-15T11:06:23;21.95;;;7.63;;
26718;SDS011;14326;50.794;6.060;2023-02-15T11:08:54;17.45;;;7.10;;
26718;SDS011;14326;50.794;6.060;2023-02-15T11:11:24;22.95;;;7.60;;
26718;SDS011;14326;50.794;6.060;2023-02-15T11:13:56;22.85;;;8.18;;
26718;SDS011;14326;50.794;6.060;2023-02-15T11:16:29;23.75;;;8.05;;
26718;SDS011;14326;50.794;6.060;2023-02-15T11:19:04;25.48;;;9.63;;
26718;SDS011;14326;50.794;6.060;2023-02-15T11:21:38;24.67;;;9.00;;
26718;SDS011;14326;50.794;6.060;2023-02-15T11:24:10;22.80;;;9.02;;
26718;SDS011;14326;50.794;6.060;2023-02-15T11:26:38;25.13;;;10.30;;
26718;SDS011;14326;50.794;6.060;2023-02-15T11:29:10;24.85;;;9.05;;
26718;SDS011;14326;50.794;6.060;2023-02-15T11:31:43;26.77;;;9.95;;
26718;SDS011;14326;50.794;6.060;2023-02-15T11:34:15;23.58;;;9.18;;
26718;SDS011;14326;50.794;6.060;2023-02-15T11:36:46;29.20;;;9.60;;
26718;SDS011;14326;50.794;6.060;2023-02-15T11:39:16;25.23;;;9.20;;
26718;SDS011;14326;50.794;6.060;2023-02-15T11:41:44;26.85;;;9.75;;
26718;SDS011;14326;50.794;6.060;2023-02-15T11:44:18;25.00;;;9.50;;
26718;SDS011;14326;50.794;6.060;2023-02-15T11:46:49;21.92;;;8.57;;
26718;SDS011;14326;50.794;6.060;2023-02-15T11:49:21;22.63;;;9.15;;
26718;SDS011;14326;50.794;6.060;2023-02-15T11:51:50;24.00;;;9.00;;
26718;SDS011;14326;50.794;6.060;2023-02-15T11:54:19;28.90;;;10.23;;
26718;SDS011;14326;50.794;6.060;2023-02-15T11:56:52;26.45;;;10.40;;
26718;SDS011;14326;50.794;6.060;2023-02-15T11:59:21;25.60;;;10.13;;
26718;SDS011;14326;50.794;6.060;2023-02-15T12:01:55;26.73;;;9.95;;
26718;SDS011;14326;50.794;6.060;2023-02-15T12:04:24;28.17;;;11.00;;
26718;SDS011;14326;50.794;6.060;2023-02-15T12:06:57;31.30;;;11.13;;
26718;SDS011;14326;50.794;6.060;2023-02-15T12:09:28;27.13;;;11.68;;
26718;SDS011;14326;50.794;6.060;2023-02-15T12:14:48;27.08;;;10.77;;
26718;SDS011;14326;50.794;6.060;2023-02-15T12:17:17;29.17;;;11.98;;
26718;SDS011;14326;50.794;6.060;2023-02-15T12:19:48;25.50;;;10.32;;
26718;SDS011;14326;50.794;6.060;2023-02-15T12:22:19;24.73;;;9.93;;
26718;SDS011;14326;50.794;6.060;2023-02-15T12:24:48;27.27;;;10.05;;
26718;SDS011;14326;50.794;6.060;2023-02-15T12:27:19;27.33;;;11.38;;
26718;SDS011;14326;50.794;6.060;2023-02-15T12:29:48;25.88;;;10.00;;
26718;SDS011;14326;50.794;6.060;2023-02-15T12:32:18;23.58;;;9.07;;
26718;SDS011;14326;50.794;6.060;2023-02-15T12:34:49;26.05;;;9.80;;
26718;SDS011;14326;50.794;6.060;2023-02-15T12:37:19;26.98;;;8.93;;
26718;SDS011;14326;50.794;6.060;2023-02-15T12:39:52;24.60;;;9.57;;
26718;SDS011;14326;50.794;6.060;2023-02-15T12:42:21;25.73;;;9.60;;
26718;SDS011;14326;50.794;6.060;2023-02-15T12:44:56;23.27;;;9.30;;
26718;SDS011;14326;50.794;6.060;2023-02-15T12:47:24;25.10;;;10.10;;
26718;SDS011;14326;50.794;6.060;2023-02-15T12:50:13;23.20;;;9.02;;
26718;SDS011;14326;50.794;6.060;2023-02-15T12:52:47;26.10;;;9.90;;
26718;SDS011;14326;50.794;6.060;2023-02-15T12:55:20;26.58;;;10.73;;
26718;SDS011;14326;50.794;6.060;2023-02-15T12:57:49;24.35;;;9.48;;
26718;SDS011;14326;50.794;6.060;2023-02-15T13:00:30;25.33;;;9.75;;
26718;SDS011;14326;50.794;6.060;2023-02-15T13:02:57;27.60;;;10.63;;
26718;SDS011;14326;50.794;6.060;2023-02-15T13:05:29;29.27;;;10.45;;
26718;SDS011;14326;50.794;6.060;2023-02-15T13:07:59;22.98;;;8.85;;
26718;SDS011;14326;50.794;6.060;2023-02-15T13:10:29;25.55;;;10.10;;
26718;SDS011;14326;50.794;6.060;2023-02-15T13:12:59;25.67;;;10.15;;
26718;SDS011;14326;50.794;6.060;2023-02-15T13:15:33;26.15;;;11.65;;
26718;SDS011;14326;50.794;6.060;2023-02-15T13:18:02;30.77;;;14.65;;
26718;SDS011;14326;50.794;6.060;2023-02-15T13:20:33;33.45;;;14.93;;
26718;SDS011;14326;50.794;6.060;2023-02-15T13:23:06;31.08;;;14.18;;
26718;SDS011;14326;50.794;6.060;2023-02-15T13:25:45;33.67;;;14.50;;
26718;SDS011;14326;50.794;6.060;2023-02-15T13:30:44;34.67;;;15.75;;
26718;SDS011;14326;50.794;6.060;2023-02-15T13:33:14;32.00;;;14.57;;
26718;SDS011;14326;50.794;6.060;2023-02-15T13:35:49;34.05;;;14.70;;
26718;SDS011;14326;50.794;6.060;2023-02-15T13:38:34;33.35;;;14.60;;
26718;SDS011;14326;50.794;6.060;2023-02-15T13:41:12;30.92;;;14.07;;
26718;SDS011;14326;50.794;6.060;2023-02-15T13:43:44;30.25;;;13.55;;
26718;SDS011;14326;50.794;6.060;2023-02-15T13:49:23;30.25;;;13.68;;
26718;SDS011;14326;50.794;6.060;2023-02-15T13:52:01;30.65;;;13.40;;
26718;SDS011;14326;50.794;6.060;2023-02-15T13:54:49;32.28;;;13.15;;
26718;SDS011;14326;50.794;6.060;2023-02-15T13:57:44;31.42;;;13.18;;
26718;SDS011;14326;50.794;6.060;2023-02-15T14:00:25;34.30;;;15.57;;
26718;SDS011;14326;50.794;6.060;2023-02-15T14:06:20;38.90;;;16.40;;
26718;SDS011;14326;50.794;6.060;2023-02-15T14:09:04;35.60;;;16.95;;
26718;SDS011;14326;50.794;6.060;2023-02-15T14:11:44;33.33;;;15.05;;
26718;SDS011;14326;50.794;6.060;2023-02-15T14:14:31;34.17;;;14.18;;
26718;SDS011;14326;50.794;6.060;2023-02-15T14:17:09;31.92;;;13.88;;
26718;SDS011;14326;50.794;6.060;2023-02-15T14:19:44;32.60;;;13.82;;
26718;SDS011;14326;50.794;6.060;2023-02-15T14:22:18;36.33;;;15.65;;
26718;SDS011;14326;50.794;6.060;2023-02-15T14:24:57;32.17;;;14.88;;
26718;SDS011;14326;50.794;6.060;2023-02-15T14:27:37;35.00;;;15.32;;
26718;SDS011;14326;50.794;6.060;2023-02-15T14:30:13;33.67;;;14.35;;
26718;SDS011;14326;50.794;6.060;2023-02-15T14:32:45;37.70;;;15.60;;
26718;SDS011;14326;50.794;6.060;2023-02-15T14:35:16;35.58;;;15.00;;
26718;SDS011;14326;50.794;6.060;2023-02-15T14:37:45;36.45;;;15.82;;
26718;SDS011;14326;50.794;6.060;2023-02-15T14:40:19;39.90;;;14.57;;
26718;SDS011;14326;50.794;6.060;2023-02-15T14:43:15;33.25;;;13.68;;
26718;SDS011;14326;50.794;6.060;2023-02-15T14:45:52;36.17;;;14.25;;
26718;SDS011;14326;50.794;6.060;2023-02-15T14:48:21;26.70;;;10.73;;
26718;SDS011;14326;50.794;6.060;2023-02-15T14:50:54;36.17;;;14.30;;
26718;SDS011;14326;50.794;6.060;2023-02-15T14:53:32;30.85;;;13.75;;
26718;SDS011;14326;50.794;6.060;2023-02-15T14:59:01;35.50;;;14.68;;
26718;SDS011;14326;50.794;6.060;2023-02-15T15:01:55;34.25;;;14.25;;
26718;SDS011;14326;50.794;6.060;2023-02-15T15:04:25;36.58;;;14.00;;
26718;SDS011;14326;50.794;6.060;2023-02-15T15:06:58;36.97;;;15.07;;
26718;SDS011;14326;50.794;6.060;2023-02-15T15:09:31;40.97;;;14.32;;
26718;SDS011;14326;50.794;6.060;2023-02-15T15:12:18;35.22;;;14.73;;